sensor_id;sensor_type;location;lat;lon;timestamp;pressure;altitude;pressure_sealevel;temperature;humidity
29909;BME280;36247;51.952;6.146;2022-10-16T00:00:30;100850.66;;;11.62;100.00
29909;BME280;36247;51.952;6.146;2022-10-16T00:02:56;100850.53;;;11.49;100.00
29909;BME280;36247;51.952;6.146;2022-10-16T00:05:22;100852.31;;;11.50;100.00
29909;BME280;36247;51.952;6.146;2022-10-16T00:07:48;100854.97;;;11.50;100.00
29909;BME280;36247;51.952;6.146;2022-10-16T00:10:14;100856.69;;;11.47;100.00
29909;BME280;36247;51.952;6.146;2022-10-16T00:12:39;100849.69;;;11.53;100.00
29909;BME280;36247;51.952;6.146;2022-10-16T00:15:05;100851.56;;;11.63;100.00
29909;BME280;36247;51.952;6.146;2022-10-16T00:17:31;100864.00;;;11.73;100.00
29909;BME280;36247;51.952;6.146;2022-10-16T00:19:57;100856.91;;;11.66;100.00
29909;BME280;36247;51.952;6.146;2022-10-16T00:22:23;100855.09;;;11.62;100.00
29909;BME280;36247;51.952;6.146;2022-10-16T00:24:50;100853.31;;;11.64;100.00
29909;BME280;36247;51.952;6.146;2022-10-16T00:27:16;100853.28;;;11.61;100.00
29909;BME280;36247;51.952;6.146;2022-10-16T00:29:42;100851.44;;;11.54;100.00
29909;BME280;36247;51.952;6.146;2022-10-16T00:32:08;100852.34;;;11.54;100.00
29909;BME280;36247;51.952;6.146;2022-10-16T00:34:34;100846.22;;;11.60;100.00
29909;BME280;36247;51.952;6.146;2022-10-16T00:37:00;100851.53;;;11.60;100.00
29909;BME280;36247;51.952;6.146;2022-10-16T00:39:26;100847.06;;;11.57;100.00
29909;BME280;36247;51.952;6.146;2022-10-16T00:41:51;100853.25;;;11.56;100.00
29909;BME280;36247;51.952;6.146;2022-10-16T00:44:52;100861.22;;;11.56;100.00
29909;BME280;36247;51.952;6.146;2022-10-16T00:49:50;100856.78;;;11.57;100.00
29909;BME280;36247;51.952;6.146;2022-10-16T00:52:17;100852.31;;;11.50;100.00
29909;BME280;36247;51.952;6.146;2022-10-16T00:54:44;100858.56;;;11.58;100.00
29909;BME280;36247;51.952;6.146;2022-10-16T00:57:11;100855.06;;;11.60;100.00
29909;BME280;36247;51.952;6.146;2022-10-16T00:59:41;100847.19;;;11.71;100.00
29909;BME280;36247;51.952;6.146;2022-10-16T01:02:11;100854.22;;;11.63;100.00
29909;BME280;36247;51.952;6.146;2022-10-16T01:04:39;100844.38;;;11.53;100.00
29909;BME280;36247;51.952;6.146;2022-10-16T01:07:14;100844.34;;;11.48;100.00
29909;BME280;36247;51.952;6.146;2022-10-16T01:10:21;100847.13;;;11.63;100.00
29909;BME280;36247;51.952;6.146;2022-10-16T01:13:03;100844.25;;;11.43;100.00
29909;BME280;36247;51.952;6.146;2022-10-16T01:15:34;100856.69;;;11.47;100.00
29909;BME280;36247;51.952;6.146;2022-10-16T01:18:08;100860.34;;;11.56;100.00
29909;BME280;36247;51.952;6.146;2022-10-16T01:20:44;100859.41;;;11.55;100.00
29909;BME280;36247;51.952;6.146;2022-10-16T01:26:17;100863.78;;;11.49;100.00
29909;BME280;36247;51.952;6.146;2022-10-16T01:28:55;100845.19;;;11.44;100.00
29909;BME280;36247;51.952;6.146;2022-10-16T01:31:25;100844.34;;;11.48;100.00
29909;BME280;36247;51.952;6.146;2022-10-16T01:34:02;100850.44;;;11.39;100.00
29909;BME280;36247;51.952;6.146;2022-10-16T01:36:35;100854.84;;;11.39;100.00
29909;BME280;36247;51.952;6.146;2022-10-16T01:39:03;100840.72;;;11.43;100.00
29909;BME280;36247;51.952;6.146;2022-10-16T01:41:34;100853.88;;;11.31;100.00
29909;BME280;36247;51.952;6.146;2022-10-16T01:44:11;100845.97;;;11.35;100.00
29909;BME280;36247;51.952;6.146;2022-10-16T01:46:41;100846.91;;;11.42;100.00
29909;BME280;36247;51.952;6.146;2022-10-16T01:49:09;100848.72;;;11.44;100.00
29909;BME280;36247;51.952;6.146;2022-10-16T01:51:36;100846.06;;;11.44;100.00
29909;BME280;36247;51.952;6.146;2022-10-16T01:54:05;100848.69;;;11.43;100.00
29909;BME280;36247;51.952;6.146;2022-10-16T01:56:34;100850.53;;;11.49;100.00
29909;BME280;36247;51.952;6.146;2022-10-16T01:59:06;100839.84;;;11.42;100.00
29909;BME280;36247;51.952;6.146;2022-10-16T02:01:35;100854.97;;;11.51;100.00
29909;BME280;36247;51.952;6.146;2022-10-16T02:04:12;100854.06;;;11.49;100.00
29909;BME280;36247;51.952;6.146;2022-10-16T02:06:39;100854.84;;;11.39;100.00
29909;BME280;36247;51.952;6.146;2022-10-16T02:09:05;100869.06;;;11.45;100.00
29909;BME280;36247;51.952;6.146;2022-10-16T02:11:31;100843.47;;;11.51;100.00
29909;BME280;36247;51.952;6.146;2022-10-16T02:14:07;100844.31;;;11.46;100.00
29909;BME280;36247;51.952;6.146;2022-10-16T02:16:43;100847.91;;;11.52;100.00
29909;BME280;36247;51.952;6.146;2022-10-16T02:19:14;100870.91;;;11.53;100.00
29909;BME280;36247;51.952;6.146;2022-10-16T02:21:48;100870.03;;;11.54;100.00
29909;BME280;36247;51.952;6.146;2022-10-16T02:26:57;100864.63;;;11.46;100.00
29909;BME280;36247;51.952;6.146;2022-10-16T02:29:26;100879.78;;;11.55;100.00
29909;BME280;36247;51.952;6.146;2022-10-16T02:31:58;100871.84;;;11.59;100.00
29909;BME280;36247;51.952;6.146;2022-10-16T02:34:27;100880.75;;;11.64;100.00
29909;BME280;36247;51.952;6.146;2022-10-16T02:36:54;100876.31;;;11.63;100.00
29909;BME280;36247;51.952;6.146;2022-10-16T02:39:21;100871.03;;;11.65;100.00
29909;BME280;36247;51.952;6.146;2022-10-16T02:41:47;100872.78;;;11.63;100.00
29909;BME280;36247;51.952;6.146;2022-10-16T02:44:13;100874.63;;;11.73;100.00
29909;BME280;36247;51.952;6.146;2022-10-16T02:46:39;100868.44;;;11.71;100.00
29909;BME280;36247;51.952;6.146;2022-10-16T02:49:04;100852.47;;;11.65;100.00
29909;BME280;36247;51.952;6.146;2022-10-16T02:51:30;100851.66;;;11.72;100.00
29909;BME280;36247;51.952;6.146;2022-10-16T02:53:56;100851.53;;;11.60;100.00
29909;BME280;36247;51.952;6.146;2022-10-16T02:56:22;100827.75;;;11.72;100.00
29909;BME280;36247;51.952;6.146;2022-10-16T02:58:47;100841.88;;;11.70;100.00
29909;BME280;36247;51.952;6.146;2022-10-16T03:01:13;100856.06;;;11.73;100.00
29909;BME280;36247;51.952;6.146;2022-10-16T03:03:42;100855.06;;;11.59;100.00
29909;BME280;36247;51.952;6.146;2022-10-16T03:06:07;100855.03;;;11.56;100.00
29909;BME280;36247;51.952;6.146;2022-10-16T03:08:33;100854.03;;;11.47;100.00
29909;BME280;36247;51.952;6.146;2022-10-16T03:10:59;100863.75;;;11.45;100.00
29909;BME280;36247;51.952;6.146;2022-10-16T03:13:27;100871.81;;;11.56;100.00
29909;BME280;36247;51.952;6.146;2022-10-16T03:15:53;100860.25;;;11.48;100.00
29909;BME280;36247;51.952;6.146;2022-10-16T03:18:19;100850.59;;;11.56;100.00
29909;BME280;36247;51.952;6.146;2022-10-16T03:20:44;100865.63;;;11.54;100.00
29909;BME280;36247;51.952;6.146;2022-10-16T03:23:10;100864.63;;;11.46;100.00
29909;BME280;36247;51.952;6.146;2022-10-16T03:25:36;100868.19;;;11.45;100.00
29909;BME280;36247;51.952;6.146;2022-10-16T03:28:02;100881.34;;;11.39;100.00
29909;BME280;36247;51.952;6.146;2022-10-16T03:30:28;100884.06;;;11.43;100.00
29909;BME280;36247;51.952;6.146;2022-10-16T03:32:54;100881.34;;;11.39;100.00
29909;BME280;36247;51.952;6.146;2022-10-16T03:35:23;100880.56;;;11.46;100.00
29909;BME280;36247;51.952;6.146;2022-10-16T03:37:50;100877.00;;;11.42;100.00
29909;BME280;36247;51.952;6.146;2022-10-16T03:40:16;100883.19;;;11.44;100.00
29909;BME280;36247;51.952;6.146;2022-10-16T03:42:42;100878.84;;;11.48;100.00
29909;BME280;36247;51.952;6.146;2022-10-16T03:45:09;100882.28;;;11.41;100.00
29909;BME280;36247;51.952;6.146;2022-10-16T03:47:35;100889.47;;;11.50;100.00
29909;BME280;36247;51.952;6.146;2022-10-16T03:50:00;100885.78;;;11.40;100.00
29909;BME280;36247;51.952;6.146;2022-10-16T03:52:26;100900.88;;;11.42;100.00
29909;BME280;36247;51.952;6.146;2022-10-16T03:54:52;100906.09;;;11.36;100.00
29909;BME280;36247;51.952;6.146;2022-10-16T03:57:17;100899.88;;;11.36;100.00
29909;BME280;36247;51.952;6.146;2022-10-16T03:59:43;100902.63;;;11.43;100.00
29909;BME280;36247;51.952;6.146;2022-10-16T04:02:09;100891.94;;;11.36;100.00
29909;BME280;36247;51.952;6.146;2022-10-16T04:04:35;100895.44;;;11.30;100.00
29909;BME280;36247;51.952;6.146;2022-10-16T04:07:01;100892.72;;;11.27;100.00
29909;BME280;36247;51.952;6.146;2022-10-16T04:09:29;100899.88;;;11.34;100.00
29909;BME280;36247;51.952;6.146;2022-10-16T04:11:54;100903.38;;;11.30;100.00
29909;BME280;36247;51.952;6.146;2022-10-16T04:14:20;100911.38;;;11.33;100.00
29909;BME280;36247;51.952;6.146;2022-10-16T04:16:46;100923.69;;;11.28;100.00
29909;BME280;36247;51.952;6.146;2022-10-16T04:19:12;100906.00;;;11.28;100.00
29909;BME280;36247;51.952;6.146;2022-10-16T04:21:37;100919.31;;;11.32;100.00
29909;BME280;36247;51.952;6.146;2022-10-16T04:24:03;100928.16;;;11.32;100.00
29909;BME280;36247;51.952;6.146;2022-10-16T04:26:29;100936.09;;;11.32;100.00
29909;BME280;36247;51.952;6.146;2022-10-16T04:28:55;100928.19;;;11.37;100.00
29909;BME280;36247;51.952;6.146;2022-10-16T04:31:21;100938.00;;;11.41;100.00
29909;BME280;36247;51.952;6.146;2022-10-16T04:33:47;100935.31;;;11.39;100.00
29909;BME280;36247;51.952;6.146;2022-10-16T04:36:13;100935.28;;;11.36;100.00
29909;BME280;36247;51.952;6.146;2022-10-16T04:38:39;100941.44;;;11.35;100.00
29909;BME280;36247;51.952;6.146;2022-10-16T04:41:06;100932.66;;;11.39;100.00
29909;BME280;36247;51.952;6.146;2022-10-16T04:43:33;100947.66;;;11.39;100.00
29909;BME280;36247;51.952;6.146;2022-10-16T04:46:00;100945.94;;;11.41;100.00
29909;BME280;36247;51.952;6.146;2022-10-16T04:48:26;100953.88;;;11.39;100.00
29909;BME280;36247;51.952;6.146;2022-10-16T04:50:51;100945.00;;;11.37;100.00
29909;BME280;36247;51.952;6.146;2022-10-16T04:53:17;100945.81;;;11.30;100.00
29909;BME280;36247;51.952;6.146;2022-10-16T04:55:43;100949.34;;;11.29;100.00
29909;BME280;36247;51.952;6.146;2022-10-16T04:58:09;100952.78;;;11.23;100.00
29909;BME280;36247;51.952;6.146;2022-10-16T05:00:35;100950.13;;;11.22;100.00
29909;BME280;36247;51.952;6.146;2022-10-16T05:03:01;100959.81;;;11.18;100.00
29909;BME280;36247;51.952;6.146;2022-10-16T05:05:27;100972.19;;;11.21;100.00
29909;BME280;36247;51.952;6.146;2022-10-16T05:07:54;100969.53;;;11.19;100.00
29909;BME280;36247;51.952;6.146;2022-10-16T05:10:20;100972.97;;;11.14;100.00
29909;BME280;36247;51.952;6.146;2022-10-16T05:12:46;100976.56;;;11.16;100.00
29909;BME280;36247;51.952;6.146;2022-10-16T05:15:12;100982.66;;;11.10;100.00
29909;BME280;36247;51.952;6.146;2022-10-16T05:17:38;100971.09;;;11.03;100.00
29909;BME280;36247;51.952;6.146;2022-10-16T05:20:04;100980.84;;;11.07;100.00
29909;BME280;36247;51.952;6.146;2022-10-16T05:22:30;100974.56;;;10.99;100.00
29909;BME280;36247;51.952;6.146;2022-10-16T05:24:55;100985.09;;;10.94;100.00
29909;BME280;36247;51.952;6.146;2022-10-16T05:27:21;100986.91;;;10.99;100.00
29909;BME280;36247;51.952;6.146;2022-10-16T05:29:48;100996.66;;;11.00;100.00
29909;BME280;36247;51.952;6.146;2022-10-16T05:32:15;100995.78;;;10.99;100.00
29909;BME280;36247;51.952;6.146;2022-10-16T05:34:42;100995.78;;;10.99;100.00
29909;BME280;36247;51.952;6.146;2022-10-16T05:37:08;100998.38;;;10.94;100.00
29909;BME280;36247;51.952;6.146;2022-10-16T05:39:34;101005.38;;;10.92;100.00
29909;BME280;36247;51.952;6.146;2022-10-16T05:42:00;101013.22;;;10.85;100.00
29909;BME280;36247;51.952;6.146;2022-10-16T05:44:25;101014.06;;;10.84;100.00
29909;BME280;36247;51.952;6.146;2022-10-16T05:46:51;101020.28;;;10.84;100.00
29909;BME280;36247;51.952;6.146;2022-10-16T05:49:17;101022.81;;;10.76;100.00
29909;BME280;36247;51.952;6.146;2022-10-16T05:51:42;101018.25;;;10.66;100.00
29909;BME280;36247;51.952;6.146;2022-10-16T05:54:08;101029.69;;;10.65;100.00
29909;BME280;36247;51.952;6.146;2022-10-16T05:56:34;101037.66;;;10.67;100.00
29909;BME280;36247;51.952;6.146;2022-10-16T05:59:00;101040.19;;;10.59;100.00
29909;BME280;36247;51.952;6.146;2022-10-16T06:01:25;101048.19;;;10.62;100.00
29909;BME280;36247;51.952;6.146;2022-10-16T06:03:51;101056.22;;;10.67;100.00
29909;BME280;36247;51.952;6.146;2022-10-16T06:06:20;101067.91;;;10.78;100.00
29909;BME280;36247;51.952;6.146;2022-10-16T06:08:47;101064.34;;;10.77;100.00
29909;BME280;36247;51.952;6.146;2022-10-16T06:11:18;101070.53;;;10.76;100.00
29909;BME280;36247;51.952;6.146;2022-10-16T06:13:52;101074.94;;;10.77;100.00
29909;BME280;36247;51.952;6.146;2022-10-16T06:16:18;101083.81;;;10.80;100.00
29909;BME280;36247;51.952;6.146;2022-10-16T06:18:43;101083.59;;;10.67;100.00
29909;BME280;36247;51.952;6.146;2022-10-16T06:21:14;101080.94;;;10.67;100.00
29909;BME280;36247;51.952;6.146;2022-10-16T06:23:41;101095.09;;;10.66;100.00
29909;BME280;36247;51.952;6.146;2022-10-16T06:26:12;101091.50;;;10.64;100.00
29909;BME280;36247;51.952;6.146;2022-10-16T06:28:38;101096.75;;;10.61;100.00
29909;BME280;36247;51.952;6.146;2022-10-16T06:31:06;101092.31;;;10.60;100.00
29909;BME280;36247;51.952;6.146;2022-10-16T06:33:33;101089.84;;;10.71;100.00
29909;BME280;36247;51.952;6.146;2022-10-16T06:36:13;101088.16;;;10.76;100.00
29909;BME280;36247;51.952;6.146;2022-10-16T06:38:41;101096.31;;;10.87;100.00
29909;BME280;36247;51.952;6.146;2022-10-16T06:41:09;101098.13;;;10.91;100.00
29909;BME280;36247;51.952;6.146;2022-10-16T06:43:35;101091.25;;;11.02;100.00
29909;BME280;36247;51.952;6.146;2022-10-16T06:46:02;101103.84;;;11.16;100.00
29909;BME280;36247;51.952;6.146;2022-10-16T06:48:29;101095.25;;;11.32;100.00
29909;BME280;36247;51.952;6.146;2022-10-16T06:51:02;101100.81;;;11.51;100.00
29909;BME280;36247;51.952;6.146;2022-10-16T06:53:30;101107.34;;;11.74;100.00
29909;BME280;36247;51.952;6.146;2022-10-16T06:56:16;101116.31;;;11.84;100.00
29909;BME280;36247;51.952;6.146;2022-10-16T06:58:42;101109.41;;;11.97;100.00
29909;BME280;36247;51.952;6.146;2022-10-16T07:01:10;101122.94;;;12.15;100.00
29909;BME280;36247;51.952;6.146;2022-10-16T07:03:38;101127.56;;;12.33;100.00
29909;BME280;36247;51.952;6.146;2022-10-16T07:06:05;101132.13;;;12.45;100.00
29909;BME280;36247;51.952;6.146;2022-10-16T07:08:33;101141.06;;;12.53;100.00
29909;BME280;36247;51.952;6.146;2022-10-16T07:11:05;101139.53;;;12.77;100.00
29909;BME280;36247;51.952;6.146;2022-10-16T07:13:33;101139.56;;;12.80;100.00
29909;BME280;36247;51.952;6.146;2022-10-16T07:16:11;101154.41;;;12.61;100.00
29909;BME280;36247;51.952;6.146;2022-10-16T07:18:37;101155.41;;;12.68;100.00
29909;BME280;36247;51.952;6.146;2022-10-16T07:21:10;101149.94;;;12.52;100.00
29909;BME280;36247;51.952;6.146;2022-10-16T07:23:37;101155.28;;;12.56;100.00
29909;BME280;36247;51.952;6.146;2022-10-16T07:26:04;101162.28;;;12.50;100.00
29909;BME280;36247;51.952;6.146;2022-10-16T07:28:30;101173.00;;;12.60;100.00
29909;BME280;36247;51.952;6.146;2022-10-16T07:31:17;101169.50;;;12.61;100.00
29909;BME280;36247;51.952;6.146;2022-10-16T07:33:44;101175.75;;;12.66;100.00
29909;BME280;36247;51.952;6.146;2022-10-16T07:36:11;101175.78;;;12.67;100.00
29909;BME280;36247;51.952;6.146;2022-10-16T07:38:37;101200.63;;;12.71;100.00
29909;BME280;36247;51.952;6.146;2022-10-16T07:41:08;101197.97;;;12.71;100.00
29909;BME280;36247;51.952;6.146;2022-10-16T07:43:34;101211.22;;;12.69;100.00
29909;BME280;36247;51.952;6.146;2022-10-16T07:46:01;101208.59;;;12.71;100.00
29909;BME280;36247;51.952;6.146;2022-10-16T07:48:28;101210.44;;;12.78;100.00
29909;BME280;36247;51.952;6.146;2022-10-16T07:50:58;101219.28;;;12.77;100.00
29909;BME280;36247;51.952;6.146;2022-10-16T07:53:45;101212.28;;;12.85;100.00
29909;BME280;36247;51.952;6.146;2022-10-16T07:56:14;101222.09;;;12.94;100.00
29909;BME280;36247;51.952;6.146;2022-10-16T07:58:40;101223.88;;;12.94;100.00
29909;BME280;36247;51.952;6.146;2022-10-16T08:01:09;101224.72;;;12.90;100.00
29909;BME280;36247;51.952;6.146;2022-10-16T08:03:35;101228.34;;;12.96;100.00
29909;BME280;36247;51.952;6.146;2022-10-16T08:06:02;101231.34;;;13.32;100.00
29909;BME280;36247;51.952;6.146;2022-10-16T08:08:27;101234.13;;;13.41;100.00
29909;BME280;36247;51.952;6.146;2022-10-16T08:10:53;101229.75;;;13.49;100.00
29909;BME280;36247;51.952;6.146;2022-10-16T08:13:19;101239.72;;;13.75;100.00
29909;BME280;36247;51.952;6.146;2022-10-16T08:15:45;101229.91;;;13.68;100.00
29909;BME280;36247;51.952;6.146;2022-10-16T08:18:13;101243.28;;;13.77;100.00
29909;BME280;36247;51.952;6.146;2022-10-16T08:20:39;101239.69;;;13.72;100.00
29909;BME280;36247;51.952;6.146;2022-10-16T08:23:06;101233.41;;;13.64;100.00
29909;BME280;36247;51.952;6.146;2022-10-16T08:25:35;101236.88;;;13.53;100.00
29909;BME280;36247;51.952;6.146;2022-10-16T08:28:05;101234.19;;;13.50;100.00
29909;BME280;36247;51.952;6.146;2022-10-16T08:30:31;101245.78;;;13.55;100.00
29909;BME280;36247;51.952;6.146;2022-10-16T08:32:56;101253.78;;;13.58;100.00
29909;BME280;36247;51.952;6.146;2022-10-16T08:35:23;101245.84;;;13.62;100.00
29909;BME280;36247;51.952;6.146;2022-10-16T08:37:50;101251.22;;;13.71;100.00
29909;BME280;36247;51.952;6.146;2022-10-16T08:40:23;101267.31;;;13.89;100.00
29909;BME280;36247;51.952;6.146;2022-10-16T08:43:24;101256.59;;;13.79;100.00
29909;BME280;36247;51.952;6.146;2022-10-16T08:48:57;101280.78;;;14.09;100.00
29909;BME280;36247;51.952;6.146;2022-10-16T08:51:27;101276.50;;;14.35;100.00
29909;BME280;36247;51.952;6.146;2022-10-16T08:54:01;101279.94;;;14.17;100.00
29909;BME280;36247;51.952;6.146;2022-10-16T08:56:28;101287.09;;;14.27;100.00
29909;BME280;36247;51.952;6.146;2022-10-16T08:58:54;101294.22;;;14.31;100.00
29909;BME280;36247;51.952;6.146;2022-10-16T09:01:22;101291.53;;;14.25;100.00
29909;BME280;36247;51.952;6.146;2022-10-16T09:06:46;101288.09;;;14.46;100.00
29909;BME280;36247;51.952;6.146;2022-10-16T09:22:31;101299.72;;;14.60;100.00
29909;BME280;36247;51.952;6.146;2022-10-16T09:25:00;101315.81;;;14.73;100.00
29909;BME280;36247;51.952;6.146;2022-10-16T09:27:35;101325.47;;;14.60;100.00
29909;BME280;36247;51.952;6.146;2022-10-16T09:30:13;101318.44;;;14.67;100.00
29909;BME280;36247;51.952;6.146;2022-10-16T09:32:41;101308.66;;;14.70;100.00
29909;BME280;36247;51.952;6.146;2022-10-16T09:35:16;101319.44;;;14.90;100.00
29909;BME280;36247;51.952;6.146;2022-10-16T09:37:45;101324.81;;;15.04;100.00
29909;BME280;36247;51.952;6.146;2022-10-16T09:40:59;101318.59;;;15.10;100.00
29909;BME280;36247;51.952;6.146;2022-10-16T09:45:56;101334.66;;;15.34;100.00
29909;BME280;36247;51.952;6.146;2022-10-16T09:48:22;101338.19;;;15.16;100.00
29909;BME280;36247;51.952;6.146;2022-10-16T09:51:00;101343.59;;;15.43;100.00
29909;BME280;36247;51.952;6.146;2022-10-16T09:53:43;101348.09;;;15.78;100.00
29909;BME280;36247;51.952;6.146;2022-10-16T09:56:11;101344.56;;;15.80;100.00
29909;BME280;36247;51.952;6.146;2022-10-16T09:58:43;101348.94;;;16.57;100.00
29909;BME280;36247;51.952;6.146;2022-10-16T10:01:14;101339.75;;;17.26;100.00
29909;BME280;36247;51.952;6.146;2022-10-16T10:03:42;101343.75;;;17.89;100.00
29909;BME280;36247;51.952;6.146;2022-10-16T10:06:24;101347.31;;;17.92;100.00
29909;BME280;36247;51.952;6.146;2022-10-16T10:11:48;101352.34;;;18.29;100.00
29909;BME280;36247;51.952;6.146;2022-10-16T10:16:43;101344.69;;;18.75;100.00
29909;BME280;36247;51.952;6.146;2022-10-16T10:19:19;101358.28;;;18.61;100.00
29909;BME280;36247;51.952;6.146;2022-10-16T10:21:46;101353.66;;;18.74;100.00
29909;BME280;36247;51.952;6.146;2022-10-16T10:24:13;101355.09;;;19.04;100.00
29909;BME280;36247;51.952;6.146;2022-10-16T10:27:10;101364.44;;;19.41;100.00
29909;BME280;36247;51.952;6.146;2022-10-16T10:32:53;101358.28;;;19.34;100.00
29909;BME280;36247;51.952;6.146;2022-10-16T10:35:27;101359.22;;;19.30;100.00
29909;BME280;36247;51.952;6.146;2022-10-16T10:38:11;101364.91;;;20.25;100.00
29909;BME280;36247;51.952;6.146;2022-10-16T10:40:52;101359.91;;;20.05;100.00
29909;BME280;36247;51.952;6.146;2022-10-16T10:43:37;101376.97;;;20.02;100.00
29909;BME280;36247;51.952;6.146;2022-10-16T10:46:11;101363.41;;;18.81;100.00
29909;BME280;36247;51.952;6.146;2022-10-16T10:57:18;101387.91;;;19.29;100.00
29909;BME280;36247;51.952;6.146;2022-10-16T11:00:23;101381.16;;;19.61;100.00
29909;BME280;36247;51.952;6.146;2022-10-16T11:08:26;101367.88;;;19.50;100.00
29909;BME280;36247;51.952;6.146;2022-10-16T11:10:58;101387.94;;;19.87;100.00
29909;BME280;36247;51.952;6.146;2022-10-16T11:13:35;101389.41;;;19.49;100.00
29909;BME280;36247;51.952;6.146;2022-10-16T11:16:13;101395.63;;;20.12;100.00
29909;BME280;36247;51.952;6.146;2022-10-16T11:22:27;101399.63;;;20.39;100.00
29909;BME280;36247;51.952;6.146;2022-10-16T11:25:02;101398.63;;;19.93;100.00
29909;BME280;36247;51.952;6.146;2022-10-16T11:27:40;101398.69;;;19.26;100.00
29909;BME280;36247;51.952;6.146;2022-10-16T11:30:16;101406.78;;;19.23;100.00
29909;BME280;36247;51.952;6.146;2022-10-16T11:35:59;101401.41;;;19.87;100.00
29909;BME280;36247;51.952;6.146;2022-10-16T11:38:38;101410.00;;;20.11;100.00
29909;BME280;36247;51.952;6.146;2022-10-16T11:43:49;101397.00;;;20.36;100.00
29909;BME280;36247;51.952;6.146;2022-10-16T11:46:20;101396.34;;;20.73;99.08
29909;BME280;36247;51.952;6.146;2022-10-16T11:48:57;101396.88;;;19.90;100.00
29909;BME280;36247;51.952;6.146;2022-10-16T11:54:28;101405.16;;;19.78;100.00
29909;BME280;36247;51.952;6.146;2022-10-16T11:57:00;101411.81;;;19.48;100.00
29909;BME280;36247;51.952;6.146;2022-10-16T11:59:36;101411.13;;;19.35;100.00
29909;BME280;36247;51.952;6.146;2022-10-16T12:05:14;101400.75;;;19.04;100.00
29909;BME280;36247;51.952;6.146;2022-10-16T12:10:40;101423.38;;;19.54;100.00
29909;BME280;36247;51.952;6.146;2022-10-16T12:13:38;101417.31;;;18.61;100.00
29909;BME280;36247;51.952;6.146;2022-10-16T12:16:20;101419.97;;;18.64;100.00
29909;BME280;36247;51.952;6.146;2022-10-16T12:18:47;101415.44;;;18.69;100.00
29909;BME280;36247;51.952;6.146;2022-10-16T12:21:15;101423.38;;;18.80;100.00
29909;BME280;36247;51.952;6.146;2022-10-16T12:23:50;101431.72;;;18.50;100.00
29909;BME280;36247;51.952;6.146;2022-10-16T12:26:28;101433.53;;;18.48;100.00
29909;BME280;36247;51.952;6.146;2022-10-16T12:28:55;101436.19;;;18.53;100.00
29909;BME280;36247;51.952;6.146;2022-10-16T12:31:21;101419.59;;;18.99;100.00
29909;BME280;36247;51.952;6.146;2022-10-16T12:34:37;101429.22;;;19.17;100.00
29909;BME280;36247;51.952;6.146;2022-10-16T12:37:25;101433.38;;;18.64;100.00
29909;BME280;36247;51.952;6.146;2022-10-16T12:39:55;101434.56;;;18.33;100.00
29909;BME280;36247;51.952;6.146;2022-10-16T12:42:31;101429.66;;;18.79;100.00
29909;BME280;36247;51.952;6.146;2022-10-16T12:44:58;101445.03;;;18.60;100.00
29909;BME280;36247;51.952;6.146;2022-10-16T12:49:57;101446.06;;;18.45;100.00
29909;BME280;36247;51.952;6.146;2022-10-16T12:54:58;101449.72;;;18.41;100.00
29909;BME280;36247;51.952;6.146;2022-10-16T13:06:11;101457.56;;;18.59;100.00
29909;BME280;36247;51.952;6.146;2022-10-16T13:11:11;101453.00;;;18.72;100.00
29909;BME280;36247;51.952;6.146;2022-10-16T13:16:45;101452.88;;;18.83;100.00
29909;BME280;36247;51.952;6.146;2022-10-16T13:19:33;101449.09;;;19.04;100.00
29909;BME280;36247;51.952;6.146;2022-10-16T13:22:29;101446.50;;;18.96;100.00
29909;BME280;36247;51.952;6.146;2022-10-16T13:28:10;101443.88;;;18.90;100.00
29909;BME280;36247;51.952;6.146;2022-10-16T13:30:51;101443.00;;;18.83;100.00
29909;BME280;36247;51.952;6.146;2022-10-16T13:33:38;101449.44;;;19.48;100.00
29909;BME280;36247;51.952;6.146;2022-10-16T13:36:05;101439.22;;;19.73;99.20
29909;BME280;36247;51.952;6.146;2022-10-16T13:38:35;101441.09;;;20.27;96.19
29909;BME280;36247;51.952;6.146;2022-10-16T13:41:12;101451.84;;;21.69;87.98
29909;BME280;36247;51.952;6.146;2022-10-16T13:43:52;101450.72;;;22.17;83.91
29909;BME280;36247;51.952;6.146;2022-10-16T13:46:23;101453.34;;;21.40;81.74
29909;BME280;36247;51.952;6.146;2022-10-16T13:49:05;101455.13;;;22.19;78.75
29909;BME280;36247;51.952;6.146;2022-10-16T13:51:32;101456.78;;;22.96;83.06
29909;BME280;36247;51.952;6.146;2022-10-16T13:53:58;101450.72;;;22.87;87.40
29909;BME280;36247;51.952;6.146;2022-10-16T13:56:29;101457.16;;;22.82;77.07
29909;BME280;36247;51.952;6.146;2022-10-16T13:59:05;101454.47;;;22.82;78.96
29909;BME280;36247;51.952;6.146;2022-10-16T14:01:41;101456.88;;;23.55;72.87
29909;BME280;36247;51.952;6.146;2022-10-16T14:04:10;101458.00;;;24.33;75.47
29909;BME280;36247;51.952;6.146;2022-10-16T14:06:40;101455.31;;;24.33;73.13
29909;BME280;36247;51.952;6.146;2022-10-16T14:09:27;101462.59;;;24.04;71.45
29909;BME280;36247;51.952;6.146;2022-10-16T14:11:57;101461.69;;;24.32;74.02
29909;BME280;36247;51.952;6.146;2022-10-16T14:14:25;101470.41;;;23.84;84.30
29909;BME280;36247;51.952;6.146;2022-10-16T14:16:52;101479.13;;;21.94;90.28
29909;BME280;36247;51.952;6.146;2022-10-16T14:21:47;101464.63;;;23.68;76.74
29909;BME280;36247;51.952;6.146;2022-10-16T14:24:19;101483.97;;;24.67;68.55
29909;BME280;36247;51.952;6.146;2022-10-16T14:26:50;101476.78;;;24.13;71.79
29909;BME280;36247;51.952;6.146;2022-10-16T14:29:19;101475.41;;;22.38;79.62
29909;BME280;36247;51.952;6.146;2022-10-16T14:31:57;101480.75;;;21.62;88.50